sensor_id;sensor_type;location;lat;lon;timestamp;temperature;humidity
14709;DHT22;7445;50.774;4.944;2022-12-07T00:01:05;4.70;99.90
14709;DHT22;7445;50.774;4.944;2022-12-07T00:03:30;4.80;99.90
14709;DHT22;7445;50.774;4.944;2022-12-07T00:06:00;4.80;99.90
14709;DHT22;7445;50.774;4.944;2022-12-07T00:08:26;4.80;99.90
14709;DHT22;7445;50.774;4.944;2022-12-07T00:10:51;4.80;99.90
14709;DHT22;7445;50.774;4.944;2022-12-07T00:13:17;4.80;99.90
14709;DHT22;7445;50.774;4.944;2022-12-07T00:15:43;4.80;99.90
14709;DHT22;7445;50.774;4.944;2022-12-07T00:18:10;4.80;99.90
14709;DHT22;7445;50.774;4.944;2022-12-07T00:20:35;4.80;99.90
14709;DHT22;7445;50.774;4.944;2022-12-07T00:23:01;4.80;99.90
14709;DHT22;7445;50.774;4.944;2022-12-07T00:25:26;4.70;99.90
14709;DHT22;7445;50.774;4.944;2022-12-07T00:27:53;4.70;99.90
14709;DHT22;7445;50.774;4.944;2022-12-07T00:30:21;4.60;99.90
14709;DHT22;7445;50.774;4.944;2022-12-07T00:32:47;4.60;99.90
14709;DHT22;7445;50.774;4.944;2022-12-07T00:35:13;4.60;99.90
14709;DHT22;7445;50.774;4.944;2022-12-07T00:37:38;4.50;99.90
14709;DHT22;7445;50.774;4.944;2022-12-07T00:40:05;4.50;99.90
14709;DHT22;7445;50.774;4.944;2022-12-07T00:42:31;4.40;99.90
14709;DHT22;7445;50.774;4.944;2022-12-07T00:44:57;4.40;99.90
14709;DHT22;7445;50.774;4.944;2022-12-07T00:47:22;4.30;99.90
14709;DHT22;7445;50.774;4.944;2022-12-07T00:49:48;4.20;99.90
14709;DHT22;7445;50.774;4.944;2022-12-07T00:52:13;4.20;99.90
14709;DHT22;7445;50.774;4.944;2022-12-07T00:54:40;4.20;99.90
14709;DHT22;7445;50.774;4.944;2022-12-07T00:57:06;4.10;99.90
14709;DHT22;7445;50.774;4.944;2022-12-07T00:59:31;4.20;99.90
14709;DHT22;7445;50.774;4.944;2022-12-07T01:01:57;4.20;99.90
14709;DHT22;7445;50.774;4.944;2022-12-07T01:04:23;4.20;99.90
14709;DHT22;7445;50.774;4.944;2022-12-07T01:06:48;4.20;99.90
14709;DHT22;7445;50.774;4.944;2022-12-07T01:09:15;4.30;99.90
14709;DHT22;7445;50.774;4.944;2022-12-07T01:11:40;4.30;99.90
14709;DHT22;7445;50.774;4.944;2022-12-07T01:14:06;4.30;99.90
14709;DHT22;7445;50.774;4.944;2022-12-07T01:16:32;4.40;99.90
14709;DHT22;7445;50.774;4.944;2022-12-07T01:18:59;4.40;99.90
14709;DHT22;7445;50.774;4.944;2022-12-07T01:21:28;4.40;99.90
14709;DHT22;7445;50.774;4.944;2022-12-07T01:23:54;4.50;99.90
14709;DHT22;7445;50.774;4.944;2022-12-07T01:26:22;4.50;99.90
14709;DHT22;7445;50.774;4.944;2022-12-07T01:28:48;4.60;99.90
14709;DHT22;7445;50.774;4.944;2022-12-07T01:31:17;4.60;99.90
14709;DHT22;7445;50.774;4.944;2022-12-07T01:33:45;4.60;99.90
14709;DHT22;7445;50.774;4.944;2022-12-07T01:38:45;4.60;99.90
14709;DHT22;7445;50.774;4.944;2022-12-07T01:41:12;4.60;99.90
14709;DHT22;7445;50.774;4.944;2022-12-07T01:44:12;4.70;99.90
14709;DHT22;7445;50.774;4.944;2022-12-07T01:46:40;4.70;99.90
14709;DHT22;7445;50.774;4.944;2022-12-07T01:49:09;4.70;99.90
14709;DHT22;7445;50.774;4.944;2022-12-07T01:51:37;4.70;99.90
14709;DHT22;7445;50.774;4.944;2022-12-07T01:54:04;4.70;99.90
14709;DHT22;7445;50.774;4.944;2022-12-07T01:56:31;4.70;99.90
14709;DHT22;7445;50.774;4.944;2022-12-07T01:58:58;4.70;99.90
14709;DHT22;7445;50.774;4.944;2022-12-07T02:01:25;4.70;99.90
14709;DHT22;7445;50.774;4.944;2022-12-07T02:03:52;4.60;99.90
14709;DHT22;7445;50.774;4.944;2022-12-07T02:06:22;4.60;99.90
14709;DHT22;7445;50.774;4.944;2022-12-07T02:08:49;4.50;99.90
14709;DHT22;7445;50.774;4.944;2022-12-07T02:11:15;4.50;99.90
14709;DHT22;7445;50.774;4.944;2022-12-07T02:13:43;4.40;99.90
14709;DHT22;7445;50.774;4.944;2022-12-07T02:27:49;4.20;99.90
14709;DHT22;7445;50.774;4.944;2022-12-07T02:30:21;4.30;99.90
14709;DHT22;7445;50.774;4.944;2022-12-07T02:33:07;4.30;99.90
14709;DHT22;7445;50.774;4.944;2022-12-07T02:35:57;4.30;99.90
14709;DHT22;7445;50.774;4.944;2022-12-07T02:38:34;4.30;99.90
14709;DHT22;7445;50.774;4.944;2022-12-07T02:41:06;4.30;99.90
14709;DHT22;7445;50.774;4.944;2022-12-07T02:43:46;4.30;99.90
14709;DHT22;7445;50.774;4.944;2022-12-07T02:46:22;4.30;99.90
14709;DHT22;7445;50.774;4.944;2022-12-07T02:48:50;4.30;99.90
14709;DHT22;7445;50.774;4.944;2022-12-07T02:51:22;4.40;99.90
14709;DHT22;7445;50.774;4.944;2022-12-07T02:53:47;4.30;99.90
14709;DHT22;7445;50.774;4.944;2022-12-07T03:04:55;4.40;99.90
14709;DHT22;7445;50.774;4.944;2022-12-07T03:10:33;4.40;99.90
14709;DHT22;7445;50.774;4.944;2022-12-07T03:13:23;4.40;99.90
14709;DHT22;7445;50.774;4.944;2022-12-07T03:18:32;4.40;99.90
14709;DHT22;7445;50.774;4.944;2022-12-07T03:21:03;4.50;99.90
14709;DHT22;7445;50.774;4.944;2022-12-07T03:23:32;4.50;99.90
14709;DHT22;7445;50.774;4.944;2022-12-07T03:26:00;4.50;99.90
14709;DHT22;7445;50.774;4.944;2022-12-07T03:28:31;4.40;99.90
14709;DHT22;7445;50.774;4.944;2022-12-07T03:31:09;4.40;99.90
14709;DHT22;7445;50.774;4.944;2022-12-07T03:34:02;4.50;99.90
14709;DHT22;7445;50.774;4.944;2022-12-07T03:36:32;4.40;99.90
14709;DHT22;7445;50.774;4.944;2022-12-07T03:41:31;4.40;99.90
14709;DHT22;7445;50.774;4.944;2022-12-07T03:43:59;4.40;99.90
14709;DHT22;7445;50.774;4.944;2022-12-07T03:46:33;4.40;99.90
14709;DHT22;7445;50.774;4.944;2022-12-07T03:49:14;4.30;99.90
14709;DHT22;7445;50.774;4.944;2022-12-07T03:54:31;4.20;99.90
14709;DHT22;7445;50.774;4.944;2022-12-07T03:57:01;4.20;99.90
14709;DHT22;7445;50.774;4.944;2022-12-07T03:59:28;4.20;99.90
14709;DHT22;7445;50.774;4.944;2022-12-07T04:01:57;4.20;99.90
14709;DHT22;7445;50.774;4.944;2022-12-07T04:04:24;4.10;99.90
14709;DHT22;7445;50.774;4.944;2022-12-07T04:06:51;4.10;99.90
14709;DHT22;7445;50.774;4.944;2022-12-07T04:09:16;4.00;99.90
14709;DHT22;7445;50.774;4.944;2022-12-07T04:11:42;4.10;99.90
14709;DHT22;7445;50.774;4.944;2022-12-07T04:14:08;4.00;99.90
14709;DHT22;7445;50.774;4.944;2022-12-07T04:16:56;4.00;99.90
14709;DHT22;7445;50.774;4.944;2022-12-07T04:19:31;4.00;99.90
14709;DHT22;7445;50.774;4.944;2022-12-07T04:21:57;4.00;99.90
14709;DHT22;7445;50.774;4.944;2022-12-07T04:24:24;4.00;99.90
14709;DHT22;7445;50.774;4.944;2022-12-07T04:26:50;3.90;99.90
14709;DHT22;7445;50.774;4.944;2022-12-07T04:29:16;4.00;99.90
14709;DHT22;7445;50.774;4.944;2022-12-07T04:31:43;4.00;99.90
14709;DHT22;7445;50.774;4.944;2022-12-07T04:34:10;4.10;99.90
14709;DHT22;7445;50.774;4.944;2022-12-07T04:36:37;4.20;99.90
14709;DHT22;7445;50.774;4.944;2022-12-07T04:39:03;4.20;99.90
14709;DHT22;7445;50.774;4.944;2022-12-07T04:41:29;4.20;99.90
14709;DHT22;7445;50.774;4.944;2022-12-07T04:44:04;4.20;99.90
14709;DHT22;7445;50.774;4.944;2022-12-07T04:46:33;4.10;99.90
14709;DHT22;7445;50.774;4.944;2022-12-07T04:48:59;4.10;99.90
14709;DHT22;7445;50.774;4.944;2022-12-07T04:51:27;4.10;99.90
14709;DHT22;7445;50.774;4.944;2022-12-07T04:53:53;4.00;99.90
14709;DHT22;7445;50.774;4.944;2022-12-07T04:56:18;4.00;99.90
14709;DHT22;7445;50.774;4.944;2022-12-07T04:58:46;3.90;99.90
14709;DHT22;7445;50.774;4.944;2022-12-07T05:01:12;3.90;99.90
14709;DHT22;7445;50.774;4.944;2022-12-07T05:03:38;3.80;99.90
14709;DHT22;7445;50.774;4.944;2022-12-07T05:06:04;3.80;99.90
14709;DHT22;7445;50.774;4.944;2022-12-07T05:08:30;3.70;99.90
14709;DHT22;7445;50.774;4.944;2022-12-07T05:10:57;3.70;99.90
14709;DHT22;7445;50.774;4.944;2022-12-07T05:13:22;3.60;99.90
14709;DHT22;7445;50.774;4.944;2022-12-07T05:15:48;3.50;99.90
14709;DHT22;7445;50.774;4.944;2022-12-07T05:18:14;3.50;99.90
14709;DHT22;7445;50.774;4.944;2022-12-07T05:20:40;3.50;99.90
14709;DHT22;7445;50.774;4.944;2022-12-07T05:23:06;3.50;99.90
14709;DHT22;7445;50.774;4.944;2022-12-07T05:25:32;3.50;99.90
14709;DHT22;7445;50.774;4.944;2022-12-07T05:27:58;3.50;99.90
14709;DHT22;7445;50.774;4.944;2022-12-07T05:30:24;3.50;99.90
14709;DHT22;7445;50.774;4.944;2022-12-07T05:32:50;3.50;99.90
14709;DHT22;7445;50.774;4.944;2022-12-07T05:35:17;3.40;99.90
14709;DHT22;7445;50.774;4.944;2022-12-07T05:37:43;3.30;99.90
14709;DHT22;7445;50.774;4.944;2022-12-07T05:40:09;3.30;99.90
14709;DHT22;7445;50.774;4.944;2022-12-07T05:42:35;3.30;99.90
14709;DHT22;7445;50.774;4.944;2022-12-07T05:45:01;3.20;99.90
14709;DHT22;7445;50.774;4.944;2022-12-07T05:47:26;3.20;99.90
14709;DHT22;7445;50.774;4.944;2022-12-07T05:49:52;3.20;99.90
14709;DHT22;7445;50.774;4.944;2022-12-07T05:52:18;3.30;99.90
14709;DHT22;7445;50.774;4.944;2022-12-07T05:54:43;3.30;99.90
14709;DHT22;7445;50.774;4.944;2022-12-07T05:57:09;3.40;99.90
14709;DHT22;7445;50.774;4.944;2022-12-07T05:59:35;3.40;99.90
14709;DHT22;7445;50.774;4.944;2022-12-07T06:02:12;3.50;99.90
14709;DHT22;7445;50.774;4.944;2022-12-07T06:04:41;3.60;99.90
14709;DHT22;7445;50.774;4.944;2022-12-07T06:07:08;3.60;99.90
14709;DHT22;7445;50.774;4.944;2022-12-07T06:09:34;3.70;99.90
14709;DHT22;7445;50.774;4.944;2022-12-07T06:12:00;3.70;99.90
14709;DHT22;7445;50.774;4.944;2022-12-07T06:14:44;3.80;99.90
14709;DHT22;7445;50.774;4.944;2022-12-07T06:17:11;3.80;99.90
14709;DHT22;7445;50.774;4.944;2022-12-07T06:19:38;3.80;99.90
14709;DHT22;7445;50.774;4.944;2022-12-07T06:22:04;3.90;99.90
14709;DHT22;7445;50.774;4.944;2022-12-07T06:24:31;3.90;99.90
14709;DHT22;7445;50.774;4.944;2022-12-07T06:26:57;3.90;99.90
14709;DHT22;7445;50.774;4.944;2022-12-07T06:29:23;3.90;99.90
14709;DHT22;7445;50.774;4.944;2022-12-07T06:31:48;3.90;99.90
14709;DHT22;7445;50.774;4.944;2022-12-07T06:34:18;3.90;99.90
14709;DHT22;7445;50.774;4.944;2022-12-07T06:36:44;3.90;99.90
14709;DHT22;7445;50.774;4.944;2022-12-07T06:39:10;4.00;99.90
14709;DHT22;7445;50.774;4.944;2022-12-07T06:41:39;3.90;99.90
14709;DHT22;7445;50.774;4.944;2022-12-07T06:44:05;3.90;99.90
14709;DHT22;7445;50.774;4.944;2022-12-07T06:46:31;3.90;99.90
14709;DHT22;7445;50.774;4.944;2022-12-07T06:48:57;3.90;99.90
14709;DHT22;7445;50.774;4.944;2022-12-07T06:51:23;3.90;99.90
14709;DHT22;7445;50.774;4.944;2022-12-07T06:53:48;3.90;99.90
14709;DHT22;7445;50.774;4.944;2022-12-07T06:56:15;3.90;99.90
14709;DHT22;7445;50.774;4.944;2022-12-07T06:58:41;3.90;99.90
14709;DHT22;7445;50.774;4.944;2022-12-07T07:01:14;3.90;99.90
14709;DHT22;7445;50.774;4.944;2022-12-07T07:03:40;3.80;99.90
14709;DHT22;7445;50.774;4.944;2022-12-07T07:06:07;3.80;99.90
14709;DHT22;7445;50.774;4.944;2022-12-07T07:08:33;3.80;99.90
14709;DHT22;7445;50.774;4.944;2022-12-07T07:10:59;3.80;99.90
14709;DHT22;7445;50.774;4.944;2022-12-07T07:13:25;3.80;99.90
14709;DHT22;7445;50.774;4.944;2022-12-07T07:15:51;3.80;99.90
14709;DHT22;7445;50.774;4.944;2022-12-07T07:18:17;3.90;99.90
14709;DHT22;7445;50.774;4.944;2022-12-07T07:20:42;3.80;99.90
14709;DHT22;7445;50.774;4.944;2022-12-07T07:23:08;3.80;99.90
14709;DHT22;7445;50.774;4.944;2022-12-07T07:25:34;3.80;99.90
14709;DHT22;7445;50.774;4.944;2022-12-07T07:28:01;3.80;99.90
14709;DHT22;7445;50.774;4.944;2022-12-07T07:30:26;3.80;99.90
14709;DHT22;7445;50.774;4.944;2022-12-07T07:32:57;3.80;99.90
14709;DHT22;7445;50.774;4.944;2022-12-07T07:35:23;3.80;99.90
14709;DHT22;7445;50.774;4.944;2022-12-07T07:37:49;3.80;99.90
14709;DHT22;7445;50.774;4.944;2022-12-07T07:40:14;3.90;99.90
14709;DHT22;7445;50.774;4.944;2022-12-07T07:42:40;3.90;99.90
14709;DHT22;7445;50.774;4.944;2022-12-07T07:45:06;3.90;99.90
14709;DHT22;7445;50.774;4.944;2022-12-07T07:47:32;3.90;99.90
14709;DHT22;7445;50.774;4.944;2022-12-07T07:49:57;4.00;99.90
14709;DHT22;7445;50.774;4.944;2022-12-07T07:52:23;4.00;99.90
14709;DHT22;7445;50.774;4.944;2022-12-07T07:54:48;4.00;99.90
14709;DHT22;7445;50.774;4.944;2022-12-07T07:57:16;4.00;99.90
14709;DHT22;7445;50.774;4.944;2022-12-07T07:59:41;4.00;99.90
14709;DHT22;7445;50.774;4.944;2022-12-07T08:02:14;4.00;99.90
14709;DHT22;7445;50.774;4.944;2022-12-07T08:04:40;4.00;99.90
14709;DHT22;7445;50.774;4.944;2022-12-07T08:07:05;4.00;99.90
14709;DHT22;7445;50.774;4.944;2022-12-07T08:09:31;4.00;99.90
14709;DHT22;7445;50.774;4.944;2022-12-07T08:11:57;4.00;99.90
14709;DHT22;7445;50.774;4.944;2022-12-07T08:14:24;4.00;99.90
14709;DHT22;7445;50.774;4.944;2022-12-07T08:16:50;3.90;99.90
14709;DHT22;7445;50.774;4.944;2022-12-07T08:19:15;3.90;99.90
14709;DHT22;7445;50.774;4.944;2022-12-07T08:21:41;3.90;99.90
14709;DHT22;7445;50.774;4.944;2022-12-07T08:24:07;3.90;99.90
14709;DHT22;7445;50.774;4.944;2022-12-07T08:26:33;3.90;99.90
14709;DHT22;7445;50.774;4.944;2022-12-07T08:28:59;4.00;99.90
14709;DHT22;7445;50.774;4.944;2022-12-07T08:31:25;4.10;99.90
14709;DHT22;7445;50.774;4.944;2022-12-07T08:33:50;4.10;99.90
14709;DHT22;7445;50.774;4.944;2022-12-07T08:36:17;4.10;99.90
14709;DHT22;7445;50.774;4.944;2022-12-07T08:38:43;4.10;99.90
14709;DHT22;7445;50.774;4.944;2022-12-07T08:41:08;4.10;99.90
14709;DHT22;7445;50.774;4.944;2022-12-07T08:43:35;4.10;99.90
14709;DHT22;7445;50.774;4.944;2022-12-07T08:46:15;4.00;99.90
14709;DHT22;7445;50.774;4.944;2022-12-07T08:49:45;4.00;99.90
14709;DHT22;7445;50.774;4.944;2022-12-07T08:51:51;3.90;99.90
14709;DHT22;7445;50.774;4.944;2022-12-07T08:54:17;3.90;99.90
14709;DHT22;7445;50.774;4.944;2022-12-07T08:56:44;3.90;99.90
14709;DHT22;7445;50.774;4.944;2022-12-07T08:59:13;4.00;99.90
14709;DHT22;7445;50.774;4.944;2022-12-07T09:01:40;4.10;99.90
14709;DHT22;7445;50.774;4.944;2022-12-07T09:04:05;4.20;99.90
14709;DHT22;7445;50.774;4.944;2022-12-07T09:06:31;4.30;99.90
14709;DHT22;7445;50.774;4.944;2022-12-07T09:08:58;4.40;99.90
14709;DHT22;7445;50.774;4.944;2022-12-07T09:11:25;4.60;99.90
14709;DHT22;7445;50.774;4.944;2022-12-07T09:13:51;4.80;99.90
14709;DHT22;7445;50.774;4.944;2022-12-07T09:16:17;4.90;99.90
14709;DHT22;7445;50.774;4.944;2022-12-07T09:18:43;5.10;99.90
14709;DHT22;7445;50.774;4.944;2022-12-07T09:21:09;5.20;99.90
14709;DHT22;7445;50.774;4.944;2022-12-07T09:23:35;5.20;99.90
14709;DHT22;7445;50.774;4.944;2022-12-07T09:26:01;5.10;99.90
14709;DHT22;7445;50.774;4.944;2022-12-07T09:28:27;5.10;99.90
14709;DHT22;7445;50.774;4.944;2022-12-07T09:30:53;5.10;99.90
14709;DHT22;7445;50.774;4.944;2022-12-07T09:33:19;5.10;99.90
14709;DHT22;7445;50.774;4.944;2022-12-07T09:35:49;5.10;99.90
14709;DHT22;7445;50.774;4.944;2022-12-07T09:38:15;5.10;99.90
14709;DHT22;7445;50.774;4.944;2022-12-07T09:40:42;5.10;99.90
14709;DHT22;7445;50.774;4.944;2022-12-07T09:43:18;5.10;99.90
14709;DHT22;7445;50.774;4.944;2022-12-07T09:45:46;5.00;99.90
14709;DHT22;7445;50.774;4.944;2022-12-07T09:48:24;5.20;99.90
14709;DHT22;7445;50.774;4.944;2022-12-07T09:50:51;5.30;99.90
14709;DHT22;7445;50.774;4.944;2022-12-07T09:53:30;5.40;99.90
14709;DHT22;7445;50.774;4.944;2022-12-07T09:55:59;5.50;99.90
14709;DHT22;7445;50.774;4.944;2022-12-07T09:58:27;5.60;99.90
14709;DHT22;7445;50.774;4.944;2022-12-07T10:03:40;5.80;99.90
14709;DHT22;7445;50.774;4.944;2022-12-07T10:06:07;5.90;99.90
14709;DHT22;7445;50.774;4.944;2022-12-07T10:08:33;6.10;99.90
14709;DHT22;7445;50.774;4.944;2022-12-07T10:11:01;6.10;99.90
14709;DHT22;7445;50.774;4.944;2022-12-07T10:13:40;6.20;99.90
14709;DHT22;7445;50.774;4.944;2022-12-07T10:16:09;6.20;99.90
14709;DHT22;7445;50.774;4.944;2022-12-07T10:18:52;6.30;99.90
14709;DHT22;7445;50.774;4.944;2022-12-07T10:21:20;6.30;99.90
14709;DHT22;7445;50.774;4.944;2022-12-07T10:24:13;6.40;99.90
14709;DHT22;7445;50.774;4.944;2022-12-07T10:26:50;6.50;99.90
14709;DHT22;7445;50.774;4.944;2022-12-07T10:29:31;6.50;99.90
14709;DHT22;7445;50.774;4.944;2022-12-07T10:32:01;6.50;99.90
14709;DHT22;7445;50.774;4.944;2022-12-07T10:34:30;6.60;99.90
14709;DHT22;7445;50.774;4.944;2022-12-07T10:42:19;6.70;99.90
14709;DHT22;7445;50.774;4.944;2022-12-07T10:44:46;6.80;99.90
14709;DHT22;7445;50.774;4.944;2022-12-07T10:56:17;7.00;99.90
14709;DHT22;7445;50.774;4.944;2022-12-07T10:59:09;7.10;99.90
14709;DHT22;7445;50.774;4.944;2022-12-07T11:01:51;7.00;99.90
14709;DHT22;7445;50.774;4.944;2022-12-07T11:04:39;7.00;99.90
14709;DHT22;7445;50.774;4.944;2022-12-07T11:12:34;7.10;99.90
14709;DHT22;7445;50.774;4.944;2022-12-07T11:15:17;7.10;99.90
14709;DHT22;7445;50.774;4.944;2022-12-07T11:18:06;7.10;99.90
14709;DHT22;7445;50.774;4.944;2022-12-07T11:20:39;7.20;99.90
14709;DHT22;7445;50.774;4.944;2022-12-07T11:32:09;7.30;99.90
14709;DHT22;7445;50.774;4.944;2022-12-07T11:35:20;7.40;99.90
14709;DHT22;7445;50.774;4.944;2022-12-07T11:37:51;7.40;99.90
14709;DHT22;7445;50.774;4.944;2022-12-07T11:40:34;7.30;99.90
14709;DHT22;7445;50.774;4.944;2022-12-07T11:43:13;7.30;99.90
14709;DHT22;7445;50.774;4.944;2022-12-07T11:45:45;7.30;99.90
14709;DHT22;7445;50.774;4.944;2022-12-07T11:48:35;7.30;99.90
14709;DHT22;7445;50.774;4.944;2022-12-07T11:51:03;7.30;99.90
14709;DHT22;7445;50.774;4.944;2022-12-07T11:53:58;7.30;99.90
14709;DHT22;7445;50.774;4.944;2022-12-07T11:56:28;7.40;99.90
14709;DHT22;7445;50.774;4.944;2022-12-07T11:58:58;7.50;99.90
14709;DHT22;7445;50.774;4.944;2022-12-07T12:06:43;7.50;99.90
14709;DHT22;7445;50.774;4.944;2022-12-07T12:22:45;7.70;99.90
14709;DHT22;7445;50.774;4.944;2022-12-07T12:25:36;7.80;99.90
14709;DHT22;7445;50.774;4.944;2022-12-07T12:28:04;7.80;99.90
14709;DHT22;7445;50.774;4.944;2022-12-07T12:30:36;7.80;99.90
14709;DHT22;7445;50.774;4.944;2022-12-07T12:35:39;7.90;99.90
14709;DHT22;7445;50.774;4.944;2022-12-07T12:38:28;8.00;99.90
14709;DHT22;7445;50.774;4.944;2022-12-07T12:40:55;8.00;99.90
14709;DHT22;7445;50.774;4.944;2022-12-07T12:46:38;7.90;99.90
14709;DHT22;7445;50.774;4.944;2022-12-07T12:54:18;7.90;99.90
14709;DHT22;7445;50.774;4.944;2022-12-07T12:57:09;7.90;99.90
14709;DHT22;7445;50.774;4.944;2022-12-07T13:04:55;7.80;99.90
14709;DHT22;7445;50.774;4.944;2022-12-07T13:15:39;7.80;99.90
14709;DHT22;7445;50.774;4.944;2022-12-07T13:29:19;7.50;99.90
14709;DHT22;7445;50.774;4.944;2022-12-07T13:31:51;7.40;99.90
14709;DHT22;7445;50.774;4.944;2022-12-07T13:34:38;7.30;99.90
14709;DHT22;7445;50.774;4.944;2022-12-07T13:37:28;7.20;99.90
14709;DHT22;7445;50.774;4.944;2022-12-07T13:39:59;7.10;99.90
14709;DHT22;7445;50.774;4.944;2022-12-07T13:42:31;7.00;99.90
14709;DHT22;7445;50.774;4.944;2022-12-07T13:44:58;6.90;99.90
14709;DHT22;7445;50.774;4.944;2022-12-07T13:49:59;6.90;99.90
14709;DHT22;7445;50.774;4.944;2022-12-07T13:52:31;6.90;99.90
14709;DHT22;7445;50.774;4.944;2022-12-07T13:57:32;6.90;99.90
14709;DHT22;7445;50.774;4.944;2022-12-07T14:00:03;7.00;99.90
14709;DHT22;7445;50.774;4.944;2022-12-07T14:02:34;7.10;99.90
14709;DHT22;7445;50.774;4.944;2022-12-07T14:05:33;7.10;99.90
14709;DHT22;7445;50.774;4.944;2022-12-07T14:08:22;7.10;99.90
14709;DHT22;7445;50.774;4.944;2022-12-07T14:16:02;7.40;99.90
14709;DHT22;7445;50.774;4.944;2022-12-07T14:18:40;7.40;99.90
14709;DHT22;7445;50.774;4.944;2022-12-07T14:23:35;7.50;99.90
14709;DHT22;7445;50.774;4.944;2022-12-07T14:26:07;7.40;99.90
14709;DHT22;7445;50.774;4.944;2022-12-07T14:28:37;7.40;99.90
14709;DHT22;7445;50.774;4.944;2022-12-07T14:31:08;7.40;99.90
14709;DHT22;7445;50.774;4.944;2022-12-07T14:33:35;7.50;99.90
14709;DHT22;7445;50.774;4.944;2022-12-07T14:36:01;7.50;99.90
14709;DHT22;7445;50.774;4.944;2022-12-07T14:38:27;7.40;99.90
14709;DHT22;7445;50.774;4.944;2022-12-07T14:40:53;7.40;99.90
14709;DHT22;7445;50.774;4.944;2022-12-07T14:43:20;7.30;99.90
14709;DHT22;7445;50.774;4.944;2022-12-07T14:45:45;7.20;99.90
14709;DHT22;7445;50.774;4.944;2022-12-07T14:48:13;7.20;99.90
14709;DHT22;7445;50.774;4.944;2022-12-07T14:50:42;7.10;99.90
14709;DHT22;7445;50.774;4.944;2022-12-07T14:53:21;7.00;99.90
14709;DHT22;7445;50.774;4.944;2022-12-07T14:55:50;6.90;99.90
14709;DHT22;7445;50.774;4.944;2022-12-07T14:58:17;6.80;99.90
14709;DHT22;7445;50.774;4.944;2022-12-07T15:00:43;6.80;99.90
14709;DHT22;7445;50.774;4.944;2022-12-07T15:03:09;6.70;99.90
14709;DHT22;7445;50.774;4.944;2022-12-07T15:05:34;6.80;99.90
14709;DHT22;7445;50.774;4.944;2022-12-07T15:08:00;6.70;99.90
14709;DHT22;7445;50.774;4.944;2022-12-07T15:10:29;6.70;99.90
14709;DHT22;7445;50.774;4.944;2022-12-07T15:12:58;6.60;99.90
14709;DHT22;7445;50.774;4.944;2022-12-07T15:15:42;6.50;99.90
14709;DHT22;7445;50.774;4.944;2022-12-07T15:18:07;6.50;99.90
14709;DHT22;7445;50.774;4.944;2022-12-07T15:20:33;6.50;99.90
14709;DHT22;7445;50.774;4.944;2022-12-07T15:22:59;6.50;99.90
14709;DHT22;7445;50.774;4.944;2022-12-07T15:25:24;6.40;99.90
14709;DHT22;7445;50.774;4.944;2022-12-07T15:27:50;6.40;99.90
14709;DHT22;7445;50.774;4.944;2022-12-07T15:30:16;6.40;99.90
14709;DHT22;7445;50.774;4.944;2022-12-07T15:32:41;6.30;99.90
14709;DHT22;7445;50.774;4.944;2022-12-07T15:35:07;6.20;99.90
14709;DHT22;7445;50.774;4.944;2022-12-07T15:37:33;6.20;99.90
14709;DHT22;7445;50.774;4.944;2022-12-07T15:39:58;6.10;99.90
14709;DHT22;7445;50.774;4.944;2022-12-07T15:42:24;6.10;99.90
14709;DHT22;7445;50.774;4.944;2022-12-07T15:44:50;6.10;99.90
14709;DHT22;7445;50.774;4.944;2022-12-07T15:47:38;6.00;99.90
14709;DHT22;7445;50.774;4.944;2022-12-07T15:50:07;6.00;99.90
14709;DHT22;7445;50.774;4.944;2022-12-07T15:52:35;5.90;99.90
14709;DHT22;7445;50.774;4.944;2022-12-07T15:55:01;5.90;99.90
14709;DHT22;7445;50.774;4.944;2022-12-07T15:57:29;5.80;99.90
14709;DHT22;7445;50.774;4.944;2022-12-07T15:59:54;5.80;99.90
14709;DHT22;7445;50.774;4.944;2022-12-07T16:02:20;5.70;99.90
14709;DHT22;7445;50.774;4.944;2022-12-07T16:04:46;5.70;99.90
14709;DHT22;7445;50.774;4.944;2022-12-07T16:07:11;5.60;99.90
14709;DHT22;7445;50.774;4.944;2022-12-07T16:09:39;5.60;99.90
14709;DHT22;7445;50.774;4.944;2022-12-07T16:12:05;5.60;99.90
14709;DHT22;7445;50.774;4.944;2022-12-07T16:14:32;5.50;99.90
14709;DHT22;7445;50.774;4.944;2022-12-07T16:16:58;5.50;99.90
14709;DHT22;7445;50.774;4.944;2022-12-07T16:19:24;5.50;99.90
14709;DHT22;7445;50.774;4.944;2022-12-07T16:21:50;5.50;99.90
14709;DHT22;7445;50.774;4.944;2022-12-07T16:24:15;5.50;99.90
14709;DHT22;7445;50.774;4.944;2022-12-07T16:26:42;5.40;99.90
14709;DHT22;7445;50.774;4.944;2022-12-07T16:29:11;5.40;99.90
14709;DHT22;7445;50.774;4.944;2022-12-07T16:31:36;5.40;99.90
14709;DHT22;7445;50.774;4.944;2022-12-07T16:34:02;5.40;99.90
14709;DHT22;7445;50.774;4.944;2022-12-07T16:36:28;5.40;99.90
14709;DHT22;7445;50.774;4.944;2022-12-07T16:38:53;5.40;99.90
14709;DHT22;7445;50.774;4.944;2022-12-07T16:41:19;5.40;99.90
14709;DHT22;7445;50.774;4.944;2022-12-07T16:43:45;5.40;99.90
14709;DHT22;7445;50.774;4.944;2022-12-07T16:46:10;5.40;99.90
14709;DHT22;7445;50.774;4.944;2022-12-07T16:48:38;5.40;99.90
14709;DHT22;7445;50.774;4.944;2022-12-07T16:51:08;5.40;99.90
14709;DHT22;7445;50.774;4.944;2022-12-07T16:53:36;5.40;99.90
14709;DHT22;7445;50.774;4.944;2022-12-07T16:56:02;5.40;99.90
14709;DHT22;7445;50.774;4.944;2022-12-07T16:58:28;5.40;99.90
14709;DHT22;7445;50.774;4.944;2022-12-07T17:00:54;5.40;99.90
14709;DHT22;7445;50.774;4.944;2022-12-07T17:03:19;5.40;99.90
14709;DHT22;7445;50.774;4.944;2022-12-07T17:05:46;5.40;99.90
14709;DHT22;7445;50.774;4.944;2022-12-07T17:08:13;5.40;99.90
14709;DHT22;7445;50.774;4.944;2022-12-07T17:10:42;5.30;99.90
14709;DHT22;7445;50.774;4.944;2022-12-07T17:13:09;5.30;99.90
14709;DHT22;7445;50.774;4.944;2022-12-07T17:15:57;5.30;99.90
14709;DHT22;7445;50.774;4.944;2022-12-07T17:18:23;5.30;99.90
14709;DHT22;7445;50.774;4.944;2022-12-07T17:20:49;5.30;99.90
14709;DHT22;7445;50.774;4.944;2022-12-07T17:23:14;5.30;99.90
14709;DHT22;7445;50.774;4.944;2022-12-07T17:25:40;5.30;99.90
14709;DHT22;7445;50.774;4.944;2022-12-07T17:28:06;5.30;99.90
14709;DHT22;7445;50.774;4.944;2022-12-07T17:30:31;5.30;99.90
14709;DHT22;7445;50.774;4.944;2022-12-07T17:32:57;5.30;99.90
14709;DHT22;7445;50.774;4.944;2022-12-07T17:35:22;5.30;99.90
14709;DHT22;7445;50.774;4.944;2022-12-07T17:37:48;5.30;99.90
14709;DHT22;7445;50.774;4.944;2022-12-07T17:40:14;5.30;99.90
14709;DHT22;7445;50.774;4.944;2022-12-07T17:42:40;5.30;99.90
14709;DHT22;7445;50.774;4.944;2022-12-07T17:45:11;5.30;99.90
14709;DHT22;7445;50.774;4.944;2022-12-07T17:47:37;5.30;99.90
14709;DHT22;7445;50.774;4.944;2022-12-07T17:50:04;5.30;99.90
14709;DHT22;7445;50.774;4.944;2022-12-07T17:52:30;5.30;99.90
14709;DHT22;7445;50.774;4.944;2022-12-07T17:55:14;5.30;99.90
14709;DHT22;7445;50.774;4.944;2022-12-07T17:57:40;5.30;99.90
14709;DHT22;7445;50.774;4.944;2022-12-07T18:00:06;5.30;99.90
14709;DHT22;7445;50.774;4.944;2022-12-07T18:02:33;5.30;99.90
14709;DHT22;7445;50.774;4.944;2022-12-07T18:04:58;5.40;99.90
14709;DHT22;7445;50.774;4.944;2022-12-07T18:07:24;5.30;99.90
14709;DHT22;7445;50.774;4.944;2022-12-07T18:09:50;5.30;99.90
14709;DHT22;7445;50.774;4.944;2022-12-07T18:12:15;5.30;99.90
14709;DHT22;7445;50.774;4.944;2022-12-07T18:14:41;5.30;99.90
14709;DHT22;7445;50.774;4.944;2022-12-07T18:17:06;5.30;99.90
14709;DHT22;7445;50.774;4.944;2022-12-07T18:19:32;5.20;99.90
14709;DHT22;7445;50.774;4.944;2022-12-07T18:22:02;5.30;99.90
14709;DHT22;7445;50.774;4.944;2022-12-07T18:24:29;5.30;99.90
14709;DHT22;7445;50.774;4.944;2022-12-07T18:26:54;5.30;99.90